createdAt,value
2022-11-26T00:03:17.518Z,101035.09
2022-11-26T00:08:23.215Z,101041.88
2022-11-26T00:13:27.271Z,101044.56
2022-11-26T00:18:30.000Z,101039.31
2022-11-26T00:23:34.139Z,101046.72
2022-11-26T00:28:38.116Z,101046.72
2022-11-26T00:33:40.920Z,101044.25
2022-11-26T00:38:45.160Z,101051.03
2022-11-26T00:43:47.921Z,101056.72
2022-11-26T00:48:50.929Z,101064.66
2022-11-26T00:53:56.230Z,101068.34
2022-11-26T00:58:59.025Z,101080.16
2022-11-26T01:04:01.796Z,101087.38
2022-11-26T01:09:06.561Z,101089.09
2022-11-26T01:14:13.411Z,101085.78
2022-11-26T01:19:16.802Z,101089.63
2022-11-26T01:24:20.886Z,101105.97
2022-11-26T01:29:23.696Z,101104.78
2022-11-26T01:34:26.476Z,101109.59
2022-11-26T01:39:30.565Z,101109.91
2022-11-26T01:44:34.506Z,101117.34
2022-11-26T01:49:39.261Z,101120.44
2022-11-26T01:54:43.580Z,101119.09
2022-11-26T01:59:47.155Z,101131.66
2022-11-26T02:04:54.349Z,101135.81
2022-11-26T02:09:58.427Z,101146.66
2022-11-26T02:15:01.168Z,101150.56
2022-11-26T02:20:42.257Z,101155.47
2022-11-26T02:26:01.395Z,101156.19
2022-11-26T02:31:08.237Z,101158.88
2022-11-26T02:36:14.145Z,101174.53
2022-11-26T02:41:16.896Z,101176.59
2022-11-26T02:46:21.134Z,101176.19
2022-11-26T02:51:25.009Z,101182.84
2022-11-26T02:56:28.615Z,101181.34
2022-11-26T03:01:36.356Z,101190.34
2022-11-26T03:06:39.216Z,101191.59
2022-11-26T03:11:42.031Z,101197.84
2022-11-26T03:16:46.342Z,101200.84
2022-11-26T03:21:49.271Z,101207.94
2022-11-26T03:26:52.128Z,101219.31
2022-11-26T03:31:56.277Z,101229.41
2022-11-26T03:36:59.703Z,101238.63
2022-11-26T03:42:02.494Z,101232.09
2022-11-26T03:47:06.728Z,101243.91
2022-11-26T03:52:09.508Z,101242.34
2022-11-26T03:57:12.285Z,101254.75
2022-11-26T04:02:16.376Z,101256.63
2022-11-26T04:07:19.170Z,101259.31
2022-11-26T04:12:22.026Z,101267.47
2022-11-26T04:17:26.210Z,101272.63
2022-11-26T04:22:29.001Z,101278.59
2022-11-26T04:27:31.794Z,101294.41
2022-11-26T04:32:36.858Z,101297.38
2022-11-26T04:37:39.679Z,101298.53
2022-11-26T04:42:42.621Z,101309.38
2022-11-26T04:47:46.915Z,101317.06
2022-11-26T04:52:49.723Z,101328.16
2022-11-26T04:57:52.650Z,101333.94
2022-11-26T05:02:56.809Z,101341.59
2022-11-26T05:07:59.679Z,101357.41
2022-11-26T05:13:02.462Z,101349.81
2022-11-26T05:18:06.727Z,101355.19
2022-11-26T05:23:09.599Z,101360.16
2022-11-26T05:28:12.372Z,101368.72
2022-11-26T05:33:16.495Z,101380.09
2022-11-26T05:38:19.322Z,101384.03
2022-11-26T05:43:22.079Z,101393.00
2022-11-26T05:48:26.218Z,101397.03
2022-11-26T05:53:30.374Z,101410.69
2022-11-26T05:58:33.687Z,101420.03
2022-11-26T06:03:37.913Z,101422.81
2022-11-26T06:08:40.784Z,101430.38
2022-11-26T06:13:43.526Z,101427.94
2022-11-26T06:18:47.641Z,101437.28
2022-11-26T06:23:57.638Z,101439.19
2022-11-26T06:29:01.823Z,101452.00
2022-11-26T06:34:05.982Z,101448.34
2022-11-26T06:39:08.730Z,101464.69
2022-11-26T06:44:11.498Z,101466.41
2022-11-26T06:49:15.611Z,101472.13
2022-11-26T06:54:18.428Z,101474.34
2022-11-26T06:59:21.917Z,101484.44
2022-11-26T07:04:26.046Z,101485.38
2022-11-26T07:09:29.019Z,101493.13
2022-11-26T07:14:31.850Z,101502.31
2022-11-26T07:19:35.947Z,101509.47
2022-11-26T07:24:39.130Z,101519.38
2022-11-26T07:29:42.209Z,101514.38
2022-11-26T07:34:46.540Z,101524.28
2022-11-26T07:39:49.545Z,101529.72
2022-11-26T07:44:52.311Z,101529.91
2022-11-26T07:49:56.449Z,101534.38
2022-11-26T07:54:59.215Z,101531.78
2022-11-26T08:00:01.969Z,101541.38
2022-11-26T08:05:16.557Z,101549.28
2022-11-26T08:10:19.489Z,101544.31
2022-11-26T08:15:22.276Z,101549.97
2022-11-26T08:20:28.995Z,101550.84
2022-11-26T08:25:32.239Z,101555.41
2022-11-26T08:30:35.023Z,101563.59
2022-11-26T08:36:05.409Z,101558.88
2022-11-26T08:41:02.136Z,101582.81
2022-11-26T08:46:05.210Z,101587.38
2022-11-26T08:51:11.768Z,101593.97
2022-11-26T08:56:14.626Z,101593.16
2022-11-26T09:01:18.480Z,101595.81
2022-11-26T09:06:23.466Z,101602.69
2022-11-26T09:11:26.440Z,101610.16
2022-11-26T09:16:29.212Z,101609.72
2022-11-26T09:21:33.813Z,101622.34
2022-11-26T09:26:36.749Z,101612.88
2022-11-26T09:31:55.023Z,101626.72
2022-11-26T09:37:03.660Z,101624.88
2022-11-26T09:42:07.273Z,101622.03
2022-11-26T09:47:14.169Z,101624.50
2022-11-26T09:52:19.351Z,101634.13
2022-11-26T09:57:24.385Z,101640.34
2022-11-26T10:02:27.351Z,101631.28
2022-11-26T10:07:45.247Z,101632.06
2022-11-26T10:13:17.384Z,101638.25
2022-11-26T10:18:18.912Z,101649.72
2022-11-26T10:23:26.680Z,101648.72
2022-11-26T10:28:31.573Z,101653.03
2022-11-26T10:33:37.461Z,101644.13
2022-11-26T10:38:41.603Z,101645.75
2022-11-26T10:43:44.931Z,101655.41
2022-11-26T10:48:47.704Z,101654.47
2022-11-26T10:53:54.206Z,101654.38
2022-11-26T10:58:56.958Z,101662.34
2022-11-26T11:04:07.839Z,101650.63
2022-11-26T11:09:27.374Z,101647.00
2022-11-26T11:14:30.155Z,101639.06
2022-11-26T11:19:32.948Z,101645.13
2022-11-26T11:24:37.093Z,101642.28
2022-11-26T11:29:39.856Z,101651.03
2022-11-26T11:34:43.072Z,101648.97
2022-11-26T11:39:47.278Z,101647.91
2022-11-26T11:44:50.603Z,101649.47
2022-11-26T11:50:04.157Z,101649.25
2022-11-26T11:55:14.702Z,101655.31
2022-11-26T12:00:18.744Z,101641.59
2022-11-26T12:05:46.900Z,101648.59
2022-11-26T12:10:54.696Z,101649.47
2022-11-26T12:16:00.970Z,101657.59
2022-11-26T12:21:06.383Z,101659.19
2022-11-26T12:26:13.174Z,101657.75
2022-11-26T12:31:17.374Z,101664.69
2022-11-26T12:36:21.696Z,101662.53
2022-11-26T12:41:26.691Z,101669.72
2022-11-26T12:46:33.622Z,101663.03
2022-11-26T12:51:39.872Z,101670.38
2022-11-26T12:56:46.583Z,101667.44
2022-11-26T13:01:49.773Z,101663.97
2022-11-26T13:07:00.950Z,101661.66
2022-11-26T13:12:09.381Z,101664.25
2022-11-26T13:17:13.671Z,101666.53
2022-11-26T13:22:51.290Z,101669.31
2022-11-26T13:28:00.948Z,101659.22
2022-11-26T13:33:14.236Z,101660.13
2022-11-26T13:38:20.855Z,101661.81
2022-11-26T13:43:49.522Z,101655.59
2022-11-26T13:48:56.471Z,101656.53
2022-11-26T13:54:02.173Z,101669.00
2022-11-26T13:59:08.608Z,101663.53
2022-11-26T14:04:12.540Z,101673.22
2022-11-26T14:09:42.052Z,101671.41
2022-11-26T14:14:47.830Z,101673.50
2022-11-26T14:20:10.290Z,101679.63
2022-11-26T14:25:14.031Z,101671.22
2022-11-26T14:30:23.488Z,101681.56
2022-11-26T14:35:33.583Z,101686.63
2022-11-26T14:40:37.931Z,101679.88
2022-11-26T14:45:42.327Z,101679.16
2022-11-26T14:50:45.147Z,101689.09
2022-11-26T14:55:48.185Z,101682.31
2022-11-26T15:01:04.611Z,101684.22
2022-11-26T15:06:07.991Z,101681.84
2022-11-26T15:11:11.639Z,101676.66
2022-11-26T15:16:27.585Z,101668.78
2022-11-26T15:21:30.423Z,101675.31
2022-11-26T15:26:34.143Z,101675.47
2022-11-26T15:31:44.531Z,101674.50
2022-11-26T15:36:47.339Z,101675.63
2022-11-26T15:41:50.106Z,101676.53
2022-11-26T15:46:55.081Z,101698.88
2022-11-26T15:51:58.781Z,101693.56
2022-11-26T15:57:07.804Z,101688.84
2022-11-26T16:02:18.051Z,101696.25
2022-11-26T16:07:22.012Z,101707.03
2022-11-26T16:12:30.084Z,101697.25
2022-11-26T16:17:34.224Z,101712.56
2022-11-26T16:22:37.040Z,101710.72
2022-11-26T16:27:40.253Z,101717.13
2022-11-26T16:32:45.112Z,101718.78
2022-11-26T16:37:48.292Z,101725.94
2022-11-26T16:42:51.428Z,101728.69
2022-11-26T16:47:55.877Z,101724.34
2022-11-26T16:52:58.680Z,101724.41
2022-11-26T16:58:02.250Z,101733.22
2022-11-26T17:03:10.175Z,101735.41
2022-11-26T17:08:15.785Z,101729.72
2022-11-26T17:13:18.605Z,101738.53
2022-11-26T17:18:23.673Z,101744.41
2022-11-26T17:23:28.060Z,101745.13
2022-11-26T17:28:30.971Z,101753.56
2022-11-26T17:33:35.251Z,101748.63
2022-11-26T17:38:38.220Z,101753.47
2022-11-26T17:43:41.130Z,101759.03
2022-11-26T17:48:45.386Z,101754.16
2022-11-26T17:53:48.249Z,101761.88
2022-11-26T17:58:51.073Z,101763.28
2022-11-26T18:03:55.487Z,101764.88
2022-11-26T18:08:58.414Z,101752.22
2022-11-26T18:14:01.461Z,101760.56
2022-11-26T18:19:05.640Z,101760.25
2022-11-26T18:24:09.122Z,101762.69
2022-11-26T18:29:11.992Z,101758.13
2022-11-26T18:34:16.150Z,101758.91
2022-11-26T18:39:19.030Z,101760.53
2022-11-26T18:44:22.197Z,101765.72
2022-11-26T18:49:26.402Z,101760.38
2022-11-26T18:54:29.383Z,101761.81
2022-11-26T18:59:32.232Z,101750.44
2022-11-26T19:04:36.716Z,101755.63
2022-11-26T19:09:39.980Z,101751.53
2022-11-26T19:14:43.035Z,101748.94
2022-11-26T19:19:47.825Z,101761.38
2022-11-26T19:24:50.763Z,101752.47
2022-11-26T19:29:53.637Z,101751.44
2022-11-26T19:35:02.645Z,101756.72
2022-11-26T19:40:09.716Z,101754.88
2022-11-26T19:45:12.757Z,101754.66
2022-11-26T19:50:17.415Z,101756.28
2022-11-26T19:55:20.336Z,101753.47
2022-11-26T20:00:23.296Z,101755.00
2022-11-26T20:05:27.481Z,101756.66
2022-11-26T20:10:30.270Z,101763.84
2022-11-26T20:15:33.367Z,101760.19
2022-11-26T20:20:37.612Z,101768.16
2022-11-26T20:25:40.393Z,101764.38
2022-11-26T20:30:43.318Z,101768.78
2022-11-26T20:35:47.455Z,101774.16
2022-11-26T20:40:50.436Z,101760.53
2022-11-26T20:46:00.456Z,101756.84
2022-11-26T20:51:05.700Z,101760.31
2022-11-26T20:56:09.053Z,101754.84
2022-11-26T21:01:16.059Z,101751.38
2022-11-26T21:06:25.951Z,101753.97
2022-11-26T21:11:32.380Z,101752.06
2022-11-26T21:16:35.292Z,101756.47
2022-11-26T21:21:39.472Z,101750.16
2022-11-26T21:26:42.457Z,101755.63
2022-11-26T21:31:45.315Z,101763.56
2022-11-26T21:36:49.874Z,101761.75
2022-11-26T21:41:52.825Z,101767.13
2022-11-26T21:46:55.839Z,101761.06
2022-11-26T21:51:59.992Z,101758.13
2022-11-26T21:57:02.785Z,101759.94
2022-11-26T22:02:06.279Z,101755.72
2022-11-26T22:07:10.493Z,101756.47
2022-11-26T22:12:13.529Z,101759.94
2022-11-26T22:17:16.508Z,101768.19
2022-11-26T22:22:20.826Z,101783.09
2022-11-26T22:27:23.695Z,101770.88
2022-11-26T22:32:26.613Z,101778.16
2022-11-26T22:37:30.735Z,101779.53
2022-11-26T22:42:33.498Z,101774.16
2022-11-26T22:47:36.487Z,101774.09
2022-11-26T22:52:42.024Z,101782.91
2022-11-26T22:57:45.059Z,101782.13
2022-11-26T23:02:47.875Z,101773.22
2022-11-26T23:07:52.343Z,101769.75
2022-11-26T23:12:55.178Z,101771.47
2022-11-26T23:17:57.943Z,101766.13
2022-11-26T23:23:02.095Z,101760.75
2022-11-26T23:28:06.526Z,101768.81
2022-11-26T23:33:09.377Z,101762.63
2022-11-26T23:38:13.611Z,101750.06
2022-11-26T23:43:16.481Z,101754.41
2022-11-26T23:48:19.448Z,101754.41
2022-11-26T23:53:23.646Z,101756.31
2022-11-26T23:58:26.483Z,101753.47
